Halifax-Northampton Regional Airport


Codes: KIXA/
Name: Halifax-Northampton Regional Airport
City: Roanoke Rapids
Country: United States
Elevation: 145 ft.

Photos at Halifax-Northampton Regional Airport


   Photos courtesy of SpottingLog. You can add your own sightings and photos by signing up for a free trial today.



No photos found.

Weather at Halifax-Northampton Regional Airport


Time (UTC)DescriptionTempratureWindCloud coverageVisibilityPressureHumidity
16-Jun-2024 03:00Clear Sky24°C7 mph, E2%10000m1018hPa64%
16-Jun-2024 06:00Clear Sky20°C4 mph, SE9%10000m1019hPa79%
16-Jun-2024 09:00Few Clouds17°C4 mph, NE15%10000m1021hPa92%
16-Jun-2024 12:00Scattered Clouds21°C4 mph, E39%10000m1023hPa72%
16-Jun-2024 15:00Broken Clouds27°C7 mph, E79%10000m1022hPa46%
16-Jun-2024 18:00Scattered Clouds30°C7 mph, E48%10000m1022hPa36%
16-Jun-2024 21:00Scattered Clouds31°C7 mph, SE35%10000m1021hPa35%
17-Jun-2024 00:00Broken Clouds25°C11 mph, SE66%10000m1021hPa50%
17-Jun-2024 03:00Broken Clouds20°C7 mph, SE81%10000m1022hPa66%
17-Jun-2024 06:00Broken Clouds18°C4 mph, S54%10000m1023hPa74%
17-Jun-2024 09:00Clear Sky17°C4 mph, S6%10000m1023hPa79%
17-Jun-2024 12:00Few Clouds22°C7 mph, S13%10000m1024hPa69%
17-Jun-2024 15:00Clear Sky27°C7 mph, S9%10000m1023hPa49%
17-Jun-2024 18:00Clear Sky31°C7 mph, S10%10000m1022hPa40%
17-Jun-2024 21:00Few Clouds32°C7 mph, S23%10000m1021hPa38%
18-Jun-2024 00:00Few Clouds26°C11 mph, SE15%10000m1021hPa57%
18-Jun-2024 03:00Clear Sky21°C9 mph, S4%10000m1023hPa70%
18-Jun-2024 06:00Clear Sky18°C7 mph, S5%10000m1024hPa82%
18-Jun-2024 09:00Clear Sky17°C4 mph, S6%10000m1024hPa88%
18-Jun-2024 12:00Clear Sky21°C4 mph, S7%10000m1025hPa71%
18-Jun-2024 15:00Clear Sky28°C4 mph, SE4%10000m1024hPa47%
18-Jun-2024 18:00Clear Sky32°C7 mph, SE3%10000m1023hPa35%
18-Jun-2024 21:00Clear Sky32°C11 mph, E4%10000m1022hPa31%
19-Jun-2024 00:00Clear Sky25°C11 mph, SE4%10000m1023hPa59%
19-Jun-2024 03:00Clear Sky20°C7 mph, SE2%10000m1025hPa82%
19-Jun-2024 06:00Few Clouds18°C4 mph, SE17%10000m1025hPa90%
19-Jun-2024 09:00Scattered Clouds17°C2 mph, E38%10000m1025hPa93%
19-Jun-2024 12:00Broken Clouds22°C4 mph, NE67%10000m1027hPa75%
19-Jun-2024 15:00Broken Clouds28°C7 mph, E65%10000m1027hPa51%
19-Jun-2024 18:00Scattered Clouds32°C9 mph, E37%10000m1025hPa35%
19-Jun-2024 21:00Clear Sky31°C13 mph, E3%10000m1024hPa32%
20-Jun-2024 00:00Clear Sky26°C11 mph, SE1%10000m1025hPa56%
20-Jun-2024 03:00Clear Sky20°C7 mph, E0%10000m1026hPa83%
20-Jun-2024 06:00Clear Sky18°C4 mph, E0%10000m1026hPa94%
20-Jun-2024 09:00Clear Sky17°C4 mph, NE1%10000m1026hPa94%
20-Jun-2024 12:00Clear Sky22°C7 mph, NE0%10000m1028hPa77%
20-Jun-2024 15:00Clear Sky28°C7 mph, E0%10000m1028hPa48%
20-Jun-2024 18:00Clear Sky31°C9 mph, E1%10000m1026hPa39%
20-Jun-2024 21:00Clear Sky32°C11 mph, E1%10000m1025hPa37%
21-Jun-2024 00:00Clear Sky27°C11 mph, SE6%10000m1025hPa58%